createdAt,value
2017-07-22T00:00:11.169Z,17.50
2017-07-22T00:02:38.732Z,17.50
2017-07-22T00:05:06.565Z,17.60
2017-07-22T00:07:34.141Z,17.60
2017-07-22T00:10:01.671Z,17.60
2017-07-22T00:12:29.231Z,17.60
2017-07-22T00:14:57.564Z,17.50
2017-07-22T00:17:25.177Z,17.50
2017-07-22T00:19:53.486Z,17.50
2017-07-22T00:22:21.035Z,17.50
2017-07-22T00:24:48.556Z,17.50
2017-07-22T00:27:16.127Z,17.60
2017-07-22T00:29:43.655Z,17.60
2017-07-22T00:32:11.475Z,17.60
2017-07-22T00:34:39.013Z,17.70
2017-07-22T00:37:07.313Z,17.60
2017-07-22T00:39:34.865Z,17.60
2017-07-22T00:42:02.419Z,17.70
2017-07-22T00:44:30.457Z,17.70
2017-07-22T00:46:57.980Z,17.70
2017-07-22T00:49:25.512Z,17.70
2017-07-22T00:51:53.058Z,17.70
2017-07-22T00:54:21.356Z,17.60
2017-07-22T00:56:48.919Z,16.00
2017-07-22T00:59:16.455Z,17.50
2017-07-22T01:01:44.760Z,17.40
2017-07-22T01:04:12.313Z,17.40
2017-07-22T01:06:39.847Z,17.40
2017-07-22T01:09:07.401Z,17.40
2017-07-22T01:11:34.949Z,17.40
2017-07-22T01:14:02.487Z,17.40
2017-07-22T01:16:30.076Z,17.40
2017-07-22T01:18:58.385Z,17.50
2017-07-22T01:21:25.928Z,17.50
2017-07-22T01:23:53.526Z,17.60
2017-07-22T01:26:21.086Z,17.60
2017-07-22T01:28:48.885Z,17.60
2017-07-22T01:31:16.415Z,17.60
2017-07-22T01:33:43.979Z,17.50
2017-07-22T01:36:11.498Z,17.40
2017-07-22T01:38:39.007Z,17.40
2017-07-22T01:41:06.545Z,17.30
2017-07-22T01:43:35.094Z,17.20
2017-07-22T01:46:02.675Z,17.20
2017-07-22T01:48:30.194Z,17.10
2017-07-22T01:50:57.754Z,17.10
2017-07-22T01:53:25.801Z,17.10
2017-07-22T01:55:53.329Z,17.00
2017-07-22T01:58:20.871Z,17.00
2017-07-22T02:00:48.423Z,17.00
2017-07-22T02:03:15.937Z,17.00
2017-07-22T02:05:43.869Z,17.00
2017-07-22T02:08:11.413Z,17.00
2017-07-22T02:10:38.946Z,17.00
2017-07-22T02:13:06.864Z,17.00
2017-07-22T02:15:34.399Z,17.00
2017-07-22T02:18:01.924Z,17.00
2017-07-22T02:20:29.466Z,17.00
2017-07-22T02:22:57.068Z,17.00
2017-07-22T02:25:24.625Z,17.00
2017-07-22T02:27:52.170Z,17.00
2017-07-22T02:30:19.722Z,17.00
2017-07-22T02:32:48.050Z,17.00
2017-07-22T02:35:15.578Z,17.00
2017-07-22T02:37:43.474Z,17.00
2017-07-22T02:40:10.993Z,16.90
2017-07-22T02:42:38.526Z,16.90
2017-07-22T02:45:06.057Z,16.90
2017-07-22T02:47:33.595Z,16.90
2017-07-22T02:50:01.144Z,16.90
2017-07-22T02:52:28.674Z,16.90
2017-07-22T02:54:56.225Z,16.90
2017-07-22T02:57:23.782Z,16.90
2017-07-22T02:59:51.285Z,17.00
2017-07-22T03:02:18.830Z,17.00
2017-07-22T03:04:46.369Z,17.00
2017-07-22T03:07:14.684Z,17.10
2017-07-22T03:09:42.222Z,17.00
2017-07-22T03:12:09.763Z,17.10
2017-07-22T03:14:37.282Z,17.00
2017-07-22T03:17:04.814Z,17.00
2017-07-22T03:19:32.356Z,17.00
2017-07-22T03:22:00.668Z,17.10
2017-07-22T03:24:28.206Z,17.00
2017-07-22T03:26:56.032Z,17.00
2017-07-22T03:29:23.567Z,17.00
2017-07-22T03:31:51.150Z,17.10
2017-07-22T03:34:18.713Z,17.00
2017-07-22T03:36:46.241Z,17.00
2017-07-22T03:39:13.780Z,17.00
2017-07-22T03:41:41.303Z,17.00
2017-07-22T03:44:08.859Z,17.00
2017-07-22T03:46:36.414Z,16.90
2017-07-22T03:49:03.946Z,17.00
2017-07-22T03:51:31.480Z,17.00
2017-07-22T03:53:59.000Z,17.00
2017-07-22T03:56:26.535Z,16.90
2017-07-22T03:58:54.081Z,16.90
2017-07-22T04:01:21.614Z,16.90
2017-07-22T04:03:49.616Z,16.90
2017-07-22T04:06:17.167Z,16.80
2017-07-22T04:08:44.702Z,16.80
2017-07-22T04:11:12.246Z,16.80
2017-07-22T04:13:39.762Z,16.70
2017-07-22T04:16:07.553Z,16.80
2017-07-22T04:18:35.076Z,16.70
2017-07-22T04:21:02.610Z,16.70
2017-07-22T04:23:30.138Z,16.80
2017-07-22T04:25:57.654Z,16.70
2017-07-22T04:28:25.193Z,16.80
2017-07-22T04:30:52.715Z,16.80
2017-07-22T04:33:20.246Z,16.80
2017-07-22T04:35:47.784Z,16.90
2017-07-22T04:38:15.300Z,16.90
2017-07-22T04:40:43.309Z,17.00
2017-07-22T04:43:10.862Z,17.00
2017-07-22T04:45:38.399Z,17.00
2017-07-22T04:48:05.965Z,17.00
2017-07-22T04:50:33.497Z,17.00
2017-07-22T04:53:01.390Z,17.00
2017-07-22T04:55:28.931Z,17.00
2017-07-22T04:57:56.463Z,17.00
2017-07-22T05:00:24.005Z,17.00
2017-07-22T05:02:51.536Z,17.00
2017-07-22T05:05:19.103Z,17.00
2017-07-22T05:07:46.654Z,17.10
2017-07-22T05:10:14.196Z,17.10
2017-07-22T05:12:41.746Z,17.10
2017-07-22T05:15:09.280Z,17.10
2017-07-22T05:17:37.210Z,17.20
2017-07-22T05:20:05.551Z,17.20
2017-07-22T05:22:33.076Z,17.30
2017-07-22T05:25:00.611Z,17.30
2017-07-22T05:27:28.120Z,17.40
2017-07-22T05:29:55.668Z,17.50
2017-07-22T05:32:23.197Z,17.50
2017-07-22T05:34:50.741Z,17.50
2017-07-22T05:37:18.289Z,17.60
2017-07-22T05:39:45.830Z,17.70
2017-07-22T05:42:13.684Z,17.70
2017-07-22T05:44:41.207Z,17.70
2017-07-22T05:47:08.758Z,17.80
2017-07-22T05:49:36.357Z,17.80
2017-07-22T05:52:03.882Z,18.10
2017-07-22T05:54:31.739Z,18.30
2017-07-22T05:56:59.284Z,18.50
2017-07-22T05:59:26.801Z,18.50
2017-07-22T06:01:54.345Z,18.50
2017-07-22T06:04:21.890Z,18.50
2017-07-22T06:06:49.422Z,18.60
2017-07-22T06:09:17.082Z,18.50
2017-07-22T06:11:44.952Z,18.60
2017-07-22T06:14:12.494Z,18.70
2017-07-22T06:16:42.828Z,18.90
2017-07-22T06:19:13.605Z,19.10
2017-07-22T06:21:41.543Z,19.60
2017-07-22T06:24:09.069Z,20.10
2017-07-22T06:26:37.373Z,21.10
2017-07-22T06:29:05.963Z,21.10
2017-07-22T06:31:36.406Z,21.80
2017-07-22T06:34:06.204Z,22.30
2017-07-22T06:36:33.726Z,22.70
2017-07-22T06:39:02.121Z,23.00
2017-07-22T06:41:29.666Z,23.20
2017-07-22T06:43:57.189Z,23.10
2017-07-22T06:46:25.078Z,22.90
2017-07-22T06:48:52.613Z,23.00
2017-07-22T06:51:20.481Z,22.90
2017-07-22T06:53:48.790Z,22.70
2017-07-22T06:56:16.335Z,22.70
2017-07-22T06:58:43.892Z,23.00
2017-07-22T07:01:11.443Z,23.10
2017-07-22T07:03:38.966Z,23.10
2017-07-22T07:06:06.538Z,23.40
2017-07-22T07:08:34.101Z,23.50
2017-07-22T07:11:02.435Z,23.80
2017-07-22T07:13:29.969Z,23.80
2017-07-22T07:15:57.863Z,23.70
2017-07-22T07:18:25.397Z,23.90
2017-07-22T07:20:52.948Z,24.40
2017-07-22T07:23:20.509Z,24.70
2017-07-22T07:25:48.047Z,25.00
2017-07-22T07:28:15.598Z,25.20
2017-07-22T07:30:43.151Z,25.40
2017-07-22T07:33:10.690Z,25.40
2017-07-22T07:35:38.253Z,25.70
2017-07-22T07:38:05.815Z,26.10
2017-07-22T07:40:33.676Z,26.20
2017-07-22T07:43:01.201Z,26.30
2017-07-22T07:45:28.730Z,26.80
2017-07-22T07:47:56.283Z,27.10
2017-07-22T07:50:24.600Z,27.10
2017-07-22T07:52:55.229Z,27.00
2017-07-22T07:55:23.529Z,27.00
2017-07-22T07:57:51.057Z,27.00
2017-07-22T08:00:18.714Z,26.90
2017-07-22T08:02:46.245Z,26.80
2017-07-22T08:05:14.190Z,26.70
2017-07-22T08:07:41.731Z,26.50
2017-07-22T08:10:09.256Z,26.50
2017-07-22T08:12:37.812Z,26.50
2017-07-22T08:17:46.834Z,26.20
2017-07-22T08:20:14.395Z,26.00
2017-07-22T08:22:41.905Z,25.60
2017-07-22T08:25:09.462Z,25.40
2017-07-22T08:27:37.009Z,25.30
2017-07-22T08:30:05.478Z,25.40
2017-07-22T08:32:33.008Z,25.50
2017-07-22T08:35:00.619Z,25.50
2017-07-22T08:37:28.197Z,25.40
2017-07-22T08:39:55.729Z,25.40
2017-07-22T08:42:23.268Z,25.60
2017-07-22T08:44:51.568Z,25.60
2017-07-22T08:47:19.116Z,25.60
2017-07-22T08:49:46.667Z,25.70
2017-07-22T08:52:14.977Z,26.00
2017-07-22T08:54:42.531Z,25.90
2017-07-22T08:57:10.077Z,26.20
2017-07-22T08:59:38.384Z,26.40
2017-07-22T09:02:05.929Z,26.40
2017-07-22T09:04:33.470Z,26.40
2017-07-22T09:07:01.797Z,26.10
2017-07-22T09:09:29.353Z,26.10
2017-07-22T09:11:56.888Z,26.10
2017-07-22T09:14:24.430Z,26.10
2017-07-22T09:16:51.971Z,26.10
2017-07-22T09:19:19.576Z,25.90
2017-07-22T09:21:47.488Z,25.70
2017-07-22T09:24:15.055Z,25.60
2017-07-22T09:26:42.885Z,25.50
2017-07-22T09:29:10.481Z,25.00
2017-07-22T09:31:38.032Z,24.80
2017-07-22T09:34:05.585Z,24.80
2017-07-22T09:36:33.140Z,24.30
2017-07-22T09:39:00.697Z,24.30
2017-07-22T09:41:28.228Z,24.30
2017-07-22T09:43:55.777Z,24.60
2017-07-22T09:46:25.237Z,24.90
2017-07-22T09:49:00.844Z,25.10
2017-07-22T09:51:31.821Z,24.90
2017-07-22T09:54:04.742Z,24.80
2017-07-22T09:56:33.528Z,24.90
2017-07-22T09:59:02.262Z,25.10
2017-07-22T10:01:31.205Z,25.60
2017-07-22T10:03:58.779Z,25.50
2017-07-22T10:06:26.333Z,25.50
2017-07-22T10:08:53.932Z,25.40
2017-07-22T10:11:21.470Z,25.60
2017-07-22T10:13:49.053Z,25.70
2017-07-22T10:16:16.619Z,25.50
2017-07-22T10:18:44.125Z,25.40
2017-07-22T10:21:11.930Z,25.30
2017-07-22T10:23:39.465Z,25.20
2017-07-22T10:26:07.060Z,25.20
2017-07-22T10:28:37.155Z,25.20
2017-07-22T10:31:05.001Z,25.10
2017-07-22T10:33:35.300Z,24.90
2017-07-22T10:36:05.702Z,24.80
2017-07-22T10:38:33.285Z,25.00
2017-07-22T10:41:00.846Z,25.20
2017-07-22T10:43:28.419Z,25.30
2017-07-22T10:45:56.012Z,25.10
2017-07-22T10:48:23.610Z,25.00
2017-07-22T10:50:51.169Z,25.00
2017-07-22T10:53:20.335Z,24.90
2017-07-22T10:55:48.436Z,24.90
2017-07-22T10:58:17.344Z,24.90
2017-07-22T11:00:46.316Z,25.00
2017-07-22T11:03:18.817Z,24.90
2017-07-22T11:05:48.869Z,24.90
2017-07-22T11:08:20.612Z,24.90
2017-07-22T11:10:48.636Z,24.90
2017-07-22T11:13:20.315Z,25.10
2017-07-22T11:15:50.022Z,25.40
2017-07-22T11:18:19.028Z,25.70
2017-07-22T11:20:49.187Z,25.80
2017-07-22T11:23:18.072Z,26.20
2017-07-22T11:25:47.648Z,26.20
2017-07-22T11:28:16.712Z,26.40
2017-07-22T11:30:45.139Z,26.50
2017-07-22T11:33:13.625Z,26.30
2017-07-22T11:35:41.388Z,26.10
2017-07-22T11:38:12.015Z,25.60
2017-07-22T11:40:42.031Z,25.20
2017-07-22T11:43:11.402Z,25.00
2017-07-22T11:45:42.109Z,24.80
2017-07-22T11:48:11.562Z,24.70
2017-07-22T11:50:39.584Z,24.50
2017-07-22T11:53:10.362Z,23.90
2017-07-22T11:55:38.767Z,23.40
2017-07-22T11:58:15.881Z,23.00
2017-07-22T12:00:46.157Z,22.80
2017-07-22T12:03:18.968Z,22.80
2017-07-22T12:05:46.885Z,22.90
2017-07-22T12:08:18.329Z,23.00
2017-07-22T12:10:49.658Z,23.00
2017-07-22T12:13:19.728Z,22.90
2017-07-22T12:15:51.361Z,23.00
2017-07-22T12:18:30.438Z,22.90
2017-07-22T12:21:00.022Z,22.70
2017-07-22T12:23:27.928Z,22.50
2017-07-22T12:25:57.829Z,22.40
2017-07-22T12:28:27.753Z,22.50
2017-07-22T12:30:56.999Z,22.80
2017-07-22T12:33:25.589Z,23.00
2017-07-22T12:35:57.871Z,23.20
2017-07-22T12:38:27.906Z,23.70
2017-07-22T12:40:55.598Z,24.10
2017-07-22T12:43:25.434Z,24.60
2017-07-22T12:45:53.052Z,25.10
2017-07-22T12:48:20.571Z,25.50
2017-07-22T12:50:48.366Z,25.80
2017-07-22T12:53:15.945Z,25.90
2017-07-22T12:55:43.459Z,26.10
2017-07-22T12:58:10.988Z,26.50
2017-07-22T13:00:38.529Z,27.10
2017-07-22T13:03:06.062Z,27.40
2017-07-22T13:05:33.598Z,27.70
2017-07-22T13:08:01.132Z,27.90
2017-07-22T13:10:29.478Z,28.70
2017-07-22T13:12:57.010Z,28.70
2017-07-22T13:15:24.550Z,29.10
2017-07-22T13:17:52.078Z,28.90
2017-07-22T13:20:19.616Z,28.70
2017-07-22T13:22:47.168Z,29.20
2017-07-22T13:25:14.688Z,29.10
2017-07-22T13:27:42.492Z,29.40
2017-07-22T13:30:10.007Z,30.10
2017-07-22T13:32:37.557Z,29.60
2017-07-22T13:35:05.087Z,29.30
2017-07-22T13:37:32.600Z,29.60
2017-07-22T13:40:00.160Z,29.80
2017-07-22T13:42:27.692Z,30.30
2017-07-22T13:44:56.052Z,30.50
2017-07-22T13:47:23.601Z,30.20
2017-07-22T13:49:51.135Z,30.70
2017-07-22T13:52:18.952Z,30.20
2017-07-22T13:54:46.467Z,29.80
2017-07-22T13:57:13.994Z,30.00
2017-07-22T13:59:41.519Z,29.80
2017-07-22T14:02:09.051Z,29.10
2017-07-22T14:04:36.592Z,28.30
2017-07-22T14:07:04.449Z,28.80
2017-07-22T14:09:31.981Z,28.90
2017-07-22T14:11:59.519Z,29.50
2017-07-22T14:14:27.817Z,30.50
2017-07-22T14:16:55.356Z,30.40
2017-07-22T14:19:23.147Z,30.90
2017-07-22T14:21:50.734Z,30.40
2017-07-22T14:24:18.265Z,29.80
2017-07-22T14:26:45.792Z,30.50
2017-07-22T14:29:13.309Z,31.20
2017-07-22T14:31:40.845Z,32.00
2017-07-22T14:34:08.378Z,32.00
2017-07-22T14:36:35.911Z,30.90
2017-07-22T14:39:03.460Z,30.70
2017-07-22T14:41:31.001Z,30.80
2017-07-22T14:43:58.830Z,31.30
2017-07-22T14:46:26.349Z,31.50
2017-07-22T14:48:53.879Z,32.10
2017-07-22T14:51:21.407Z,31.50
2017-07-22T14:53:48.928Z,31.70
2017-07-22T14:56:16.765Z,31.30
2017-07-22T14:58:44.284Z,30.90
2017-07-22T15:01:12.578Z,30.60
2017-07-22T15:03:40.144Z,30.60
2017-07-22T15:06:07.668Z,30.50
2017-07-22T15:08:36.234Z,31.90
2017-07-22T15:11:03.773Z,31.90
2017-07-22T15:13:31.295Z,31.40
2017-07-22T15:15:58.829Z,31.30
2017-07-22T15:18:26.352Z,31.40
2017-07-22T15:20:53.894Z,31.90
2017-07-22T15:23:21.403Z,31.40
2017-07-22T15:25:48.954Z,30.70
2017-07-22T15:28:16.500Z,30.30
2017-07-22T15:30:44.025Z,30.10
2017-07-22T15:33:11.546Z,30.00
2017-07-22T15:35:39.097Z,30.00
2017-07-22T15:38:06.636Z,30.20
2017-07-22T15:40:34.158Z,29.90
2017-07-22T15:43:01.690Z,29.20
2017-07-22T15:45:29.501Z,28.60
2017-07-22T15:47:57.025Z,28.60
2017-07-22T15:50:24.554Z,29.10
2017-07-22T15:52:52.855Z,30.10
2017-07-22T15:55:20.386Z,30.00
2017-07-22T15:57:48.196Z,30.00
2017-07-22T16:00:15.715Z,30.70
2017-07-22T16:02:43.241Z,31.00
2017-07-22T16:05:10.764Z,30.40
2017-07-22T16:07:38.276Z,29.80
2017-07-22T16:10:05.856Z,29.90
2017-07-22T16:12:33.375Z,30.40
2017-07-22T16:15:00.899Z,31.30
2017-07-22T16:17:28.431Z,31.60
2017-07-22T16:19:56.721Z,31.20
2017-07-22T16:22:24.526Z,27.60
2017-07-22T16:24:52.139Z,31.10
2017-07-22T16:27:19.708Z,30.60
2017-07-22T16:29:47.242Z,30.70
2017-07-22T16:32:14.806Z,31.20
2017-07-22T16:34:43.440Z,30.10
2017-07-22T16:37:10.946Z,30.10
2017-07-22T16:39:39.225Z,30.50
2017-07-22T16:42:06.747Z,30.40
2017-07-22T16:44:34.308Z,30.60
2017-07-22T16:47:02.106Z,30.80
2017-07-22T16:49:29.688Z,30.90
2017-07-22T16:51:57.200Z,31.40
2017-07-22T16:54:24.779Z,30.80
2017-07-22T16:56:52.340Z,30.20
2017-07-22T16:59:20.273Z,29.70
2017-07-22T17:01:47.813Z,29.00
2017-07-22T17:04:15.341Z,28.80
2017-07-22T17:06:42.881Z,29.20
2017-07-22T17:09:10.392Z,29.40
2017-07-22T17:11:37.940Z,30.00
2017-07-22T17:14:05.474Z,30.60
2017-07-22T17:16:33.768Z,30.90
2017-07-22T17:19:01.344Z,30.90
2017-07-22T17:21:28.884Z,30.80
2017-07-22T17:23:56.431Z,30.70
2017-07-22T17:26:23.983Z,30.70
2017-07-22T17:28:52.285Z,30.30
2017-07-22T17:31:19.854Z,30.30
2017-07-22T17:33:47.676Z,29.70
2017-07-22T17:36:19.639Z,28.80
2017-07-22T17:38:52.343Z,28.00
2017-07-22T17:41:25.437Z,27.30
2017-07-22T17:43:53.020Z,26.90
2017-07-22T17:46:20.941Z,26.60
2017-07-22T17:48:48.618Z,26.10
2017-07-22T17:51:16.195Z,25.80
2017-07-22T17:53:43.767Z,25.60
2017-07-22T17:56:11.303Z,25.40
2017-07-22T17:58:38.866Z,25.10
2017-07-22T18:01:06.420Z,25.10
2017-07-22T18:03:33.955Z,24.90
2017-07-22T18:06:01.881Z,24.90
2017-07-22T18:08:29.431Z,24.70
2017-07-22T18:10:57.007Z,24.70
2017-07-22T18:13:24.549Z,24.70
2017-07-22T18:15:52.078Z,24.70
2017-07-22T18:18:19.654Z,24.60
2017-07-22T18:20:47.208Z,24.60
2017-07-22T18:23:14.756Z,24.60
2017-07-22T18:25:42.326Z,24.60
2017-07-22T18:28:09.935Z,24.50
2017-07-22T18:30:37.777Z,24.50
2017-07-22T18:33:05.283Z,24.40
2017-07-22T18:35:32.847Z,24.40
2017-07-22T18:38:01.438Z,24.40
2017-07-22T18:40:29.021Z,24.30
2017-07-22T18:42:56.598Z,24.30
2017-07-22T18:45:24.853Z,24.20
2017-07-22T18:47:52.393Z,24.20
2017-07-22T18:50:21.000Z,24.10
2017-07-22T18:52:48.574Z,24.10
2017-07-22T18:55:16.121Z,24.10
2017-07-22T18:57:43.689Z,24.00
2017-07-22T19:00:11.229Z,24.00
2017-07-22T19:02:38.792Z,23.90
2017-07-22T19:05:06.444Z,23.80
2017-07-22T19:07:34.009Z,23.80
2017-07-22T19:10:01.555Z,23.70
2017-07-22T19:12:29.883Z,23.50
2017-07-22T19:14:57.454Z,23.50
2017-07-22T19:17:24.976Z,23.40
2017-07-22T19:19:52.533Z,23.30
2017-07-22T19:22:20.465Z,23.30
2017-07-22T19:24:48.784Z,23.10
2017-07-22T19:27:16.344Z,23.10
2017-07-22T19:29:43.879Z,23.00
2017-07-22T19:32:12.217Z,22.90
2017-07-22T19:34:40.729Z,22.90
2017-07-22T19:37:08.317Z,23.00
2017-07-22T19:39:35.869Z,22.80
2017-07-22T19:42:03.432Z,22.70
2017-07-22T19:44:31.063Z,22.60
2017-07-22T19:46:59.494Z,22.40
2017-07-22T19:49:28.575Z,22.40
2017-07-22T19:51:56.490Z,22.40
2017-07-22T19:54:24.067Z,22.30
2017-07-22T19:56:51.602Z,22.30
2017-07-22T19:59:19.146Z,22.20
2017-07-22T20:01:46.707Z,22.00
2017-07-22T20:04:14.539Z,21.90
2017-07-22T20:06:42.071Z,21.80
2017-07-22T20:09:10.368Z,21.20
2017-07-22T20:11:37.967Z,21.20
2017-07-22T20:14:05.494Z,20.80
2017-07-22T20:16:33.084Z,20.70
2017-07-22T20:19:00.674Z,20.60
2017-07-22T20:21:28.256Z,20.70
2017-07-22T20:23:55.820Z,20.70
2017-07-22T20:26:23.368Z,20.80
2017-07-22T20:28:51.924Z,20.80
2017-07-22T20:31:19.503Z,20.80
2017-07-22T20:33:47.794Z,20.90
2017-07-22T20:36:16.140Z,21.10
2017-07-22T20:38:43.789Z,21.00
2017-07-22T20:41:11.358Z,21.20
2017-07-22T20:43:39.012Z,21.30
2017-07-22T20:46:06.573Z,21.40
2017-07-22T20:48:34.217Z,21.40
2017-07-22T20:51:02.126Z,21.60
2017-07-22T20:53:30.018Z,21.60
2017-07-22T20:55:57.548Z,21.70
2017-07-22T20:58:25.127Z,21.70
2017-07-22T21:00:52.950Z,21.70
2017-07-22T21:03:20.482Z,21.80
2017-07-22T21:05:48.069Z,21.90
2017-07-22T21:08:15.626Z,21.90
2017-07-22T21:10:43.153Z,21.90
2017-07-22T21:13:11.063Z,22.00
2017-07-22T21:15:40.419Z,22.00
2017-07-22T21:18:07.957Z,21.90
2017-07-22T21:20:35.498Z,21.90
2017-07-22T21:23:03.046Z,21.90
2017-07-22T21:25:30.929Z,21.70
2017-07-22T21:27:58.487Z,21.60
2017-07-22T21:30:26.013Z,21.30
2017-07-22T21:32:53.611Z,21.00
2017-07-22T21:35:21.962Z,20.60
2017-07-22T21:37:49.789Z,20.50
2017-07-22T21:40:17.351Z,20.30
2017-07-22T21:42:44.926Z,20.00
2017-07-22T21:45:13.396Z,19.70
2017-07-22T21:47:41.679Z,19.50
2017-07-22T21:50:09.494Z,19.20
2017-07-22T21:52:38.677Z,18.80
2017-07-22T21:55:06.219Z,18.80
2017-07-22T21:57:33.761Z,18.60
2017-07-22T22:00:01.299Z,18.40
2017-07-22T22:02:29.282Z,18.30
2017-07-22T22:04:56.833Z,18.20
2017-07-22T22:07:24.384Z,18.20
2017-07-22T22:09:52.203Z,18.10
2017-07-22T22:12:19.731Z,18.00
2017-07-22T22:14:47.807Z,17.80
2017-07-22T22:17:15.686Z,17.80
2017-07-22T22:19:43.229Z,17.70
2017-07-22T22:22:11.904Z,17.60
2017-07-22T22:24:39.458Z,17.50
2017-07-22T22:27:06.979Z,17.50
2017-07-22T22:29:35.776Z,17.40
2017-07-22T22:32:03.413Z,17.40
2017-07-22T22:34:31.056Z,17.40
2017-07-22T22:36:58.643Z,17.30
2017-07-22T22:39:26.181Z,17.30
2017-07-22T22:41:54.032Z,17.30
2017-07-22T22:44:21.564Z,17.20
2017-07-22T22:46:49.109Z,17.20
2017-07-22T22:49:16.688Z,17.10
2017-07-22T22:51:44.250Z,17.10
2017-07-22T22:54:11.800Z,17.00
2017-07-22T22:56:39.357Z,17.00
2017-07-22T22:59:07.449Z,17.00
2017-07-22T23:01:35.099Z,17.00
2017-07-22T23:04:02.634Z,17.00
2017-07-22T23:06:30.201Z,16.90
2017-07-22T23:08:57.771Z,16.90
2017-07-22T23:11:25.313Z,16.90
2017-07-22T23:13:52.873Z,16.90
2017-07-22T23:16:20.398Z,16.90
2017-07-22T23:18:47.907Z,16.90
2017-07-22T23:21:15.465Z,16.90
2017-07-22T23:23:43.006Z,16.90
2017-07-22T23:26:10.544Z,16.90
2017-07-22T23:28:38.348Z,16.90
2017-07-22T23:31:05.908Z,16.90
2017-07-22T23:33:33.472Z,16.90
2017-07-22T23:36:01.398Z,16.90
2017-07-22T23:38:28.936Z,16.90
2017-07-22T23:40:56.475Z,16.80
2017-07-22T23:43:24.333Z,16.80
2017-07-22T23:45:51.900Z,16.80
2017-07-22T23:48:19.444Z,16.80
2017-07-22T23:50:46.988Z,16.80
2017-07-22T23:53:14.527Z,16.80
2017-07-22T23:55:42.253Z,16.80
2017-07-22T23:58:09.779Z,16.80
